X  Close Metar Aviation Weather Data        KDWH George Bush Intercontinental Airport
Temperature
77°F Temperature
60°F Dewpoint
56% Humidity



Wind
7 MPH
11 KM/H
3 M/S
6 KTS



-1°
VRB
Current Conditions

Cloudy Cloudy
Pressure 1019 (hPa) - 30.09 (inHg)
Visibility 10 (mile) - 16 (km)
Airport
Airport-code KDWH

Location: George Bush Intercontinental Airport
Distance: 12 (mi)

Metar:
METAR KDWH 231753Z VRB06KT 10SM FEW037 OVC075 25/16 A3009 RMK AO2 SLP188 T02500156 10250 20117 58008

Time: 2024-04-23 12:53 CDT